createdAt,value
2022-08-21T00:02:36.273Z,18.86
2022-08-21T00:05:42.364Z,18.82
2022-08-21T00:08:47.629Z,18.76
2022-08-21T00:11:54.009Z,18.71
2022-08-21T00:15:04.461Z,18.69
2022-08-21T00:18:13.084Z,18.69
2022-08-21T00:21:18.009Z,18.69
2022-08-21T00:24:23.826Z,18.66
2022-08-21T00:27:29.927Z,18.61
2022-08-21T00:30:37.535Z,18.58
2022-08-21T00:33:43.893Z,18.56
2022-08-21T00:36:49.551Z,18.52
2022-08-21T00:39:57.099Z,18.48
2022-08-21T00:43:05.896Z,18.42
2022-08-21T00:46:12.344Z,18.37
2022-08-21T00:49:18.196Z,18.35
2022-08-21T00:52:29.560Z,18.32
2022-08-21T00:55:37.078Z,18.31
2022-08-21T01:03:40.505Z,18.26
2022-08-21T01:06:49.041Z,18.18
2022-08-21T01:09:55.609Z,18.15
2022-08-21T01:13:03.413Z,18.14
2022-08-21T01:16:11.929Z,18.15
2022-08-21T01:19:17.803Z,18.11
2022-08-21T01:22:23.955Z,18.09
2022-08-21T01:25:31.332Z,18.05
2022-08-21T01:28:38.221Z,18.01
2022-08-21T01:31:45.199Z,18.00
2022-08-21T01:34:52.909Z,17.98
2022-08-21T01:38:00.506Z,17.96
2022-08-21T01:41:08.301Z,17.93
2022-08-21T01:44:15.287Z,17.90
2022-08-21T01:47:41.921Z,17.86
2022-08-21T01:50:47.999Z,17.86
2022-08-21T01:53:56.311Z,17.85
2022-08-21T01:57:05.442Z,17.83
2022-08-21T02:00:12.120Z,17.82
2022-08-21T02:03:23.249Z,17.82
2022-08-21T02:06:30.995Z,17.83
2022-08-21T02:09:40.144Z,17.81
2022-08-21T02:12:46.794Z,17.82
2022-08-21T02:15:53.414Z,17.83
2022-08-21T02:18:58.933Z,17.86
2022-08-21T02:22:05.902Z,17.85
2022-08-21T02:25:12.175Z,17.82
2022-08-21T02:28:21.934Z,17.80
2022-08-21T02:31:26.963Z,17.80
2022-08-21T02:34:36.302Z,17.76
2022-08-21T02:37:41.236Z,17.76
2022-08-21T02:40:51.138Z,17.75
2022-08-21T02:43:56.236Z,17.76
2022-08-21T02:47:02.287Z,17.73
2022-08-21T02:50:09.064Z,17.70
2022-08-21T02:53:15.644Z,17.69
2022-08-21T02:56:25.187Z,17.66
2022-08-21T02:59:33.381Z,17.64
2022-08-21T03:02:39.972Z,17.64
2022-08-21T03:05:47.344Z,17.67
2022-08-21T03:08:55.057Z,17.70
2022-08-21T03:12:02.959Z,17.72
2022-08-21T03:15:10.038Z,17.70
2022-08-21T03:18:17.228Z,17.70
2022-08-21T03:21:23.810Z,17.71
2022-08-21T03:24:29.661Z,17.74
2022-08-21T03:27:35.223Z,17.77
2022-08-21T03:30:41.781Z,17.82
2022-08-21T03:33:48.969Z,17.85
2022-08-21T03:36:56.573Z,17.91
2022-08-21T03:40:03.314Z,17.97
2022-08-21T03:43:11.517Z,17.97
2022-08-21T03:46:19.775Z,17.97
2022-08-21T03:49:28.844Z,17.96
2022-08-21T03:52:34.887Z,17.96
2022-08-21T03:55:41.297Z,18.01
2022-08-21T03:58:47.914Z,18.04
2022-08-21T04:01:54.191Z,18.05
2022-08-21T04:05:00.446Z,18.10
2022-08-21T04:08:09.391Z,18.12
2022-08-21T04:11:19.321Z,18.18
2022-08-21T04:14:26.023Z,18.25
2022-08-21T04:17:29.393Z,18.29
2022-08-21T04:20:35.174Z,18.35
2022-08-21T04:23:42.373Z,18.45
2022-08-21T04:26:50.553Z,18.54
2022-08-21T04:29:56.512Z,18.59
2022-08-21T04:33:04.339Z,18.64
2022-08-21T04:36:11.496Z,18.71
2022-08-21T04:39:22.188Z,18.78
2022-08-21T04:42:29.975Z,18.85
2022-08-21T04:45:44.423Z,18.90
2022-08-21T04:48:51.230Z,18.96
2022-08-21T04:51:56.653Z,19.01
2022-08-21T04:55:02.382Z,19.07
2022-08-21T04:58:08.473Z,19.16
2022-08-21T05:01:14.341Z,19.24
2022-08-21T05:04:23.274Z,19.32
2022-08-21T05:07:42.223Z,19.38
2022-08-21T05:10:41.572Z,19.44
2022-08-21T05:13:52.307Z,19.52
2022-08-21T05:16:59.414Z,19.59
2022-08-21T05:20:05.978Z,19.67
2022-08-21T05:23:18.770Z,19.73
2022-08-21T05:26:26.050Z,19.77
2022-08-21T05:29:33.786Z,19.86
2022-08-21T05:32:41.590Z,19.92
2022-08-21T05:35:49.483Z,20.01
2022-08-21T05:38:56.218Z,20.05
2022-08-21T05:42:02.254Z,20.10
2022-08-21T05:45:09.842Z,20.15
2022-08-21T05:48:24.698Z,20.22
2022-08-21T05:51:33.663Z,20.30
2022-08-21T05:54:39.155Z,20.37
2022-08-21T05:57:49.613Z,20.43
2022-08-21T06:01:06.577Z,20.51
2022-08-21T06:04:12.644Z,20.58
2022-08-21T06:07:21.068Z,20.67
2022-08-21T06:10:27.300Z,20.79
2022-08-21T06:13:36.707Z,20.89
2022-08-21T06:16:45.326Z,20.97
2022-08-21T06:19:54.912Z,21.04
2022-08-21T06:23:01.492Z,21.13
2022-08-21T06:26:08.359Z,21.21
2022-08-21T06:29:17.493Z,21.28
2022-08-21T06:32:26.240Z,21.34
2022-08-21T06:35:33.382Z,21.42
2022-08-21T06:38:40.168Z,21.50
2022-08-21T06:41:45.615Z,21.58
2022-08-21T06:44:55.969Z,21.66
2022-08-21T06:48:02.618Z,21.67
2022-08-21T06:51:07.867Z,21.71
2022-08-21T06:54:16.742Z,21.80
2022-08-21T06:57:24.620Z,21.80
2022-08-21T07:00:32.983Z,21.77
2022-08-21T07:03:43.879Z,21.79
2022-08-21T07:06:52.082Z,21.85
2022-08-21T07:09:58.189Z,21.93
2022-08-21T07:13:08.450Z,22.04
2022-08-21T07:16:14.796Z,22.14
2022-08-21T07:19:21.884Z,22.23
2022-08-21T07:22:27.128Z,22.35
2022-08-21T07:25:34.620Z,22.46
2022-08-21T07:28:44.080Z,22.58
2022-08-21T07:31:50.159Z,22.67
2022-08-21T07:34:58.573Z,22.71
2022-08-21T07:38:06.939Z,22.75
2022-08-21T07:41:13.782Z,22.79
2022-08-21T07:44:21.378Z,22.80
2022-08-21T07:47:41.776Z,22.84
2022-08-21T07:50:36.212Z,22.92
2022-08-21T07:53:43.741Z,22.99
2022-08-21T07:56:49.900Z,23.07
2022-08-21T07:59:56.991Z,23.15
2022-08-21T08:03:06.843Z,23.22
2022-08-21T08:06:14.251Z,23.32
2022-08-21T08:09:20.773Z,23.39
2022-08-21T08:12:34.367Z,23.51
2022-08-21T08:15:45.307Z,23.61
2022-08-21T08:18:52.602Z,23.76
2022-08-21T08:21:58.671Z,23.90
2022-08-21T08:25:09.192Z,24.09
2022-08-21T08:28:16.637Z,24.27
2022-08-21T08:31:21.524Z,24.43
2022-08-21T08:34:31.081Z,24.51
2022-08-21T08:37:39.685Z,24.55
2022-08-21T08:40:56.947Z,24.59
2022-08-21T08:44:13.746Z,24.63
2022-08-21T08:47:20.991Z,24.69
2022-08-21T08:50:45.743Z,24.78
2022-08-21T08:54:05.562Z,24.86
2022-08-21T08:57:12.610Z,24.90
2022-08-21T09:00:24.732Z,24.91
2022-08-21T09:03:32.201Z,24.95
2022-08-21T09:06:45.375Z,25.00
2022-08-21T09:10:15.316Z,25.07
2022-08-21T09:13:46.920Z,25.08
2022-08-21T09:17:09.048Z,25.15
2022-08-21T09:20:43.013Z,25.23
2022-08-21T09:24:18.764Z,25.29
2022-08-21T09:27:31.138Z,25.30
2022-08-21T09:30:46.797Z,25.37
2022-08-21T09:33:54.018Z,25.44
2022-08-21T09:37:08.264Z,25.48
2022-08-21T09:40:14.562Z,25.57
2022-08-21T09:43:33.855Z,25.68
2022-08-21T09:46:42.414Z,25.75
2022-08-21T09:49:53.823Z,25.82
2022-08-21T09:53:07.154Z,25.84
2022-08-21T09:56:36.429Z,25.88
2022-08-21T09:59:49.516Z,25.96
2022-08-21T10:02:56.225Z,26.05
2022-08-21T10:06:16.340Z,26.14
2022-08-21T10:09:29.646Z,26.24
2022-08-21T10:12:40.381Z,26.33
2022-08-21T10:16:09.975Z,26.37
2022-08-21T10:19:49.628Z,26.44
2022-08-21T10:23:07.687Z,26.51
2022-08-21T10:26:40.642Z,26.61
2022-08-21T10:29:52.903Z,26.69
2022-08-21T10:33:22.085Z,26.72
2022-08-21T10:36:36.113Z,26.87
2022-08-21T10:40:01.736Z,26.96
2022-08-21T10:43:56.229Z,27.10
2022-08-21T10:47:09.504Z,27.25
2022-08-21T10:50:47.299Z,27.41
2022-08-21T10:54:22.827Z,27.47
2022-08-21T10:57:36.512Z,27.55
2022-08-21T11:00:54.858Z,27.72
2022-08-21T11:04:30.032Z,27.93
2022-08-21T11:07:53.398Z,28.16
2022-08-21T11:11:08.226Z,28.37
2022-08-21T11:14:22.432Z,28.56
2022-08-21T11:17:34.358Z,28.69
2022-08-21T11:21:15.443Z,28.73
2022-08-21T11:24:52.696Z,28.86
2022-08-21T11:28:24.729Z,29.08
2022-08-21T11:32:02.540Z,29.23
2022-08-21T11:35:36.289Z,29.40
2022-08-21T11:38:47.661Z,29.50
2022-08-21T11:41:59.484Z,29.53
2022-08-21T11:45:29.084Z,29.48
2022-08-21T11:48:59.811Z,29.47
2022-08-21T11:52:43.097Z,29.45
2022-08-21T11:56:20.641Z,29.43
2022-08-21T11:59:56.716Z,29.61
2022-08-21T12:03:09.050Z,29.76
2022-08-21T12:06:24.303Z,29.82
2022-08-21T12:09:49.738Z,29.88
2022-08-21T12:12:59.312Z,29.90
2022-08-21T12:16:07.192Z,29.99
2022-08-21T12:19:22.478Z,30.04
2022-08-21T12:22:30.479Z,30.06
2022-08-21T12:25:36.503Z,30.12
2022-08-21T12:28:45.134Z,30.14
2022-08-21T12:31:52.744Z,30.08
2022-08-21T12:35:36.996Z,30.08
2022-08-21T12:38:49.187Z,30.08
2022-08-21T12:42:06.071Z,30.15
2022-08-21T12:45:15.623Z,30.13
2022-08-21T12:48:42.878Z,30.09
2022-08-21T12:52:25.284Z,29.91
2022-08-21T12:55:33.340Z,29.77
2022-08-21T12:58:41.447Z,29.61
2022-08-21T13:02:03.151Z,29.61
2022-08-21T13:05:10.462Z,29.59
2022-08-21T13:08:23.521Z,29.59
2022-08-21T13:11:34.375Z,29.55
2022-08-21T13:14:56.091Z,29.52
2022-08-21T13:18:07.692Z,29.52
2022-08-21T13:21:29.624Z,29.52
2022-08-21T13:24:43.204Z,29.48
2022-08-21T13:27:49.279Z,29.43
2022-08-21T13:31:09.158Z,29.42
2022-08-21T13:34:19.500Z,29.42
2022-08-21T13:37:26.283Z,29.45
2022-08-21T13:40:37.824Z,29.45
2022-08-21T13:43:50.174Z,29.45
2022-08-21T13:46:58.694Z,29.46
2022-08-21T13:50:08.079Z,29.41
2022-08-21T13:53:24.034Z,29.39
2022-08-21T13:56:47.370Z,29.35
2022-08-21T13:59:55.807Z,29.32
2022-08-21T14:03:07.289Z,29.23
2022-08-21T14:06:17.585Z,29.16
2022-08-21T14:09:30.489Z,29.11
2022-08-21T14:13:07.668Z,29.06
2022-08-21T14:16:18.337Z,29.04
2022-08-21T14:19:21.996Z,28.97
2022-08-21T14:22:53.083Z,28.96
2022-08-21T14:25:53.533Z,28.97
2022-08-21T14:29:09.541Z,28.98
2022-08-21T14:32:21.617Z,28.97
2022-08-21T14:35:28.060Z,28.91
2022-08-21T14:38:36.295Z,28.85
2022-08-21T14:41:46.934Z,28.83
2022-08-21T14:44:52.813Z,28.84
2022-08-21T14:47:59.405Z,28.81
2022-08-21T14:51:09.568Z,28.76
2022-08-21T14:54:17.644Z,28.72
2022-08-21T14:57:25.776Z,28.68
2022-08-21T15:00:35.974Z,28.66
2022-08-21T15:03:45.149Z,28.69
2022-08-21T15:06:52.729Z,28.80
2022-08-21T15:10:01.065Z,28.79
2022-08-21T15:13:06.991Z,28.71
2022-08-21T15:16:13.797Z,28.65
2022-08-21T15:19:19.397Z,28.59
2022-08-21T15:22:28.834Z,28.51
2022-08-21T15:25:34.821Z,28.45
2022-08-21T15:28:44.172Z,28.39
2022-08-21T15:31:50.596Z,28.36
2022-08-21T15:34:58.466Z,28.33
2022-08-21T15:38:05.724Z,28.29
2022-08-21T15:41:13.108Z,28.24
2022-08-21T15:44:19.912Z,28.20
2022-08-21T15:47:34.085Z,28.14
2022-08-21T15:50:41.238Z,28.10
2022-08-21T15:53:47.619Z,28.04
2022-08-21T15:56:58.278Z,28.01
2022-08-21T16:00:07.650Z,27.95
2022-08-21T16:03:14.800Z,27.82
2022-08-21T16:06:37.595Z,27.80
2022-08-21T16:09:32.468Z,27.72
2022-08-21T16:12:41.466Z,27.61
2022-08-21T16:15:48.028Z,27.51
2022-08-21T16:18:53.915Z,27.41
2022-08-21T16:22:03.802Z,27.32
2022-08-21T16:25:11.173Z,27.23
2022-08-21T16:28:18.626Z,27.10
2022-08-21T16:31:24.807Z,27.00
2022-08-21T16:34:36.763Z,26.89
2022-08-21T16:37:44.326Z,26.79
2022-08-21T16:40:53.085Z,26.69
2022-08-21T16:44:00.873Z,26.58
2022-08-21T16:47:06.636Z,26.43
2022-08-21T16:50:12.800Z,26.33
2022-08-21T16:53:18.544Z,26.21
2022-08-21T16:56:27.174Z,26.10
2022-08-21T16:59:32.299Z,26.00
2022-08-21T17:02:47.959Z,25.91
2022-08-21T17:05:54.247Z,25.82
2022-08-21T17:09:01.620Z,25.74
2022-08-21T17:12:09.318Z,25.66
2022-08-21T17:15:21.228Z,25.56
2022-08-21T17:18:31.752Z,25.47
2022-08-21T17:21:37.671Z,25.40
2022-08-21T17:24:44.045Z,25.34
2022-08-21T17:27:51.292Z,25.27
2022-08-21T17:30:57.786Z,25.18
2022-08-21T17:34:05.499Z,25.09
2022-08-21T17:37:10.265Z,25.00
2022-08-21T17:40:17.361Z,24.91
2022-08-21T17:43:24.931Z,24.82
2022-08-21T17:46:35.121Z,24.75
2022-08-21T17:49:41.582Z,24.65
2022-08-21T17:52:47.635Z,24.57
2022-08-21T17:55:54.051Z,24.47
2022-08-21T17:59:05.326Z,24.37
2022-08-21T18:02:19.590Z,24.27
2022-08-21T18:05:20.525Z,24.16
2022-08-21T18:08:26.214Z,24.03
2022-08-21T18:11:33.108Z,23.90
2022-08-21T18:14:46.117Z,23.81
2022-08-21T18:17:55.803Z,23.72
2022-08-21T18:21:02.519Z,23.66
2022-08-21T18:24:09.145Z,23.58
2022-08-21T18:27:14.674Z,23.54
2022-08-21T18:30:21.239Z,23.46
2022-08-21T18:33:28.961Z,23.43
2022-08-21T18:36:36.286Z,23.39
2022-08-21T18:39:44.215Z,23.33
2022-08-21T18:42:55.798Z,23.30
2022-08-21T18:46:04.358Z,23.23
2022-08-21T18:49:09.658Z,23.16
2022-08-21T18:52:20.288Z,23.07
2022-08-21T18:55:24.812Z,23.04
2022-08-21T18:58:31.212Z,23.00
2022-08-21T19:01:39.747Z,22.88
2022-08-21T19:04:48.426Z,22.78
2022-08-21T19:07:55.521Z,22.69
2022-08-21T19:11:03.154Z,22.61
2022-08-21T19:14:10.019Z,22.55
2022-08-21T19:17:17.721Z,22.49
2022-08-21T19:20:41.606Z,22.45
2022-08-21T19:23:52.598Z,22.39
2022-08-21T19:26:59.968Z,22.31
2022-08-21T19:30:05.752Z,22.22
2022-08-21T19:33:13.054Z,22.18
2022-08-21T19:36:23.480Z,22.15
2022-08-21T19:39:30.900Z,22.09
2022-08-21T19:42:37.556Z,22.05
2022-08-21T19:45:45.819Z,22.01
2022-08-21T19:48:52.224Z,21.99
2022-08-21T19:51:59.332Z,21.97
2022-08-21T19:55:09.213Z,21.96
2022-08-21T19:58:17.929Z,21.93
2022-08-21T20:01:25.799Z,21.92
2022-08-21T20:04:32.248Z,21.92
2022-08-21T20:07:39.514Z,21.92
2022-08-21T20:10:45.661Z,21.89
2022-08-21T20:13:55.990Z,21.84
2022-08-21T20:17:03.601Z,21.80
2022-08-21T20:20:10.043Z,21.78
2022-08-21T20:23:19.586Z,21.77
2022-08-21T20:26:27.492Z,21.73
2022-08-21T20:29:38.964Z,21.72
2022-08-21T20:32:43.498Z,21.71
2022-08-21T20:35:53.765Z,21.68
2022-08-21T20:38:59.714Z,21.68
2022-08-21T20:42:06.970Z,21.68
2022-08-21T20:45:15.038Z,21.63
2022-08-21T20:48:49.513Z,21.60
2022-08-21T20:51:59.837Z,21.57
2022-08-21T20:55:13.245Z,21.56
2022-08-21T20:58:32.101Z,21.57
2022-08-21T21:01:40.731Z,21.56
2022-08-21T21:05:05.305Z,21.51
2022-08-21T21:08:39.535Z,21.49
2022-08-21T21:11:52.978Z,21.45
2022-08-21T21:15:05.304Z,21.41
2022-08-21T21:18:24.650Z,21.41
2022-08-21T21:21:55.012Z,21.41
2022-08-21T21:25:20.771Z,21.41
2022-08-21T21:28:48.552Z,21.38
2022-08-21T21:31:55.249Z,21.35
2022-08-21T21:35:01.328Z,21.31
2022-08-21T21:38:51.925Z,21.29
2022-08-21T21:42:10.077Z,21.29
2022-08-21T21:45:29.045Z,21.29
2022-08-21T21:48:59.168Z,21.29
2022-08-21T21:52:20.164Z,21.27
2022-08-21T21:55:49.888Z,21.26
2022-08-21T21:59:12.321Z,21.26
2022-08-21T22:02:32.629Z,21.25
2022-08-21T22:06:11.864Z,21.24
2022-08-21T22:09:36.359Z,21.17
2022-08-21T22:12:57.879Z,21.10
2022-08-21T22:16:05.904Z,21.03
2022-08-21T22:19:18.605Z,21.01
2022-08-21T22:22:31.442Z,21.01
2022-08-21T22:25:43.492Z,21.02
2022-08-21T22:28:54.717Z,21.03
2022-08-21T22:32:06.948Z,21.04
2022-08-21T22:35:24.589Z,21.04
2022-08-21T22:38:48.025Z,21.01
2022-08-21T22:41:57.768Z,20.98
2022-08-21T22:45:12.383Z,20.97
2022-08-21T22:48:22.630Z,20.95
2022-08-21T22:51:47.945Z,20.93
2022-08-21T22:54:56.897Z,20.92
2022-08-21T22:58:25.476Z,20.90
2022-08-21T23:01:42.025Z,20.90
2022-08-21T23:04:48.322Z,20.87
2022-08-21T23:07:58.445Z,20.85
2022-08-21T23:11:05.136Z,20.84
2022-08-21T23:14:14.438Z,20.81
2022-08-21T23:17:27.207Z,20.79
2022-08-21T23:20:46.968Z,20.77
2022-08-21T23:23:59.227Z,20.76
2022-08-21T23:27:34.157Z,20.74
2022-08-21T23:31:07.020Z,20.71
2022-08-21T23:34:31.388Z,20.68
2022-08-21T23:37:59.246Z,20.69
2022-08-21T23:41:20.579Z,20.65
2022-08-21T23:48:31.059Z,20.60
2022-08-21T23:52:18.607Z,20.57
2022-08-21T23:55:38.524Z,20.57
2022-08-21T23:59:04.942Z,20.51
